Time;durP1;ratioP1;P1;durP2;ratioP2;P2;SDS_P1;SDS_P2;PMS_P1;PMS_P2;Temp;Humidity;BMP_temperature;BMP_pressure;BME280_temperature;BME280_humidity;BME280_pressure;Samples;Min_cycle;Max_cycle;Signal;HPM_P1;HPM_P2
2023/05/02 00:00:00;;;;;;;1999.90;999.90;;;27.70;85.00;;;;;;5041953;28;20136;-73
2023/05/02 00:02:27;;;;;;;1999.90;999.90;;;27.90;85.70;;;;;;5043238;28;20510;-71
2023/05/02 00:04:54;;;;;;;1999.90;999.90;;;28.30;83.80;;;;;;5036095;28;20546;-73
2023/05/02 00:07:22;;;;;;;1999.90;999.90;;;28.60;82.10;;;;;;5039558;28;20075;-74
2023/05/02 00:09:50;;;;;;;1999.90;999.90;;;28.40;84.10;;;;;;5041488;28;20438;-73
2023/05/02 00:12:17;;;;;;;1999.90;999.90;;;28.50;82.70;;;;;;5042130;28;20108;-76
2023/05/02 00:14:44;;;;;;;1999.90;999.90;;;28.30;83.10;;;;;;5044032;28;20033;-74
2023/05/02 00:17:21;;;;;;;1999.90;999.90;;;28.50;84.10;;;;;;5044737;28;20036;-76
2023/05/02 00:19:48;;;;;;;1999.90;999.90;;;28.80;84.10;;;;;;5052627;28;20029;-75
2023/05/02 00:22:16;;;;;;;1999.90;999.90;;;29.20;83.70;;;;;;5061460;28;20826;-76
2023/05/02 00:24:43;;;;;;;1999.90;999.90;;;29.30;83.40;;;;;;5050828;28;20100;-76
2023/05/02 00:27:11;;;;;;;1999.90;999.90;;;29.80;82.50;;;;;;5048069;28;20036;-72
2023/05/02 00:29:38;;;;;;;1999.90;999.90;;;29.80;81.80;;;;;;5056220;28;20430;-73
2023/05/02 00:32:06;;;;;;;1999.90;999.90;;;30.30;80.20;;;;;;5054711;28;20118;-73
2023/05/02 00:34:33;;;;;;;1999.90;999.90;;;30.10;81.00;;;;;;5048822;28;20053;-75
2023/05/02 00:37:01;;;;;;;1999.90;999.90;;;29.90;82.20;;;;;;5046942;28;20118;-73
2023/05/02 00:39:28;;;;;;;1999.90;999.90;;;30.00;82.50;;;;;;5054191;28;20104;-73
2023/05/02 00:41:59;;;;;;;1999.90;999.90;;;30.10;80.80;;;;;;5049414;28;20029;-73
2023/05/02 00:44:27;;;;;;;1999.90;999.90;;;30.30;80.80;;;;;;5050409;28;20025;-73
2023/05/02 00:47:00;;;;;;;1999.90;999.90;;;30.30;81.70;;;;;;5048841;28;20063;-73
2023/05/02 00:49:28;;;;;;;1999.90;999.90;;;30.60;80.20;;;;;;5048960;28;20523;-74
2023/05/02 00:51:55;;;;;;;1999.90;999.90;;;30.50;81.10;;;;;;5056585;28;20044;-74
2023/05/02 00:54:22;;;;;;;1999.90;999.90;;;30.70;80.10;;;;;;5055085;28;20380;-73
2023/05/02 00:56:50;;;;;;;1999.90;999.90;;;30.90;79.20;;;;;;5056572;28;20029;-73
2023/05/02 00:59:18;;;;;;;1999.90;999.90;;;31.00;78.70;;;;;;5056766;28;20052;-74
2023/05/02 01:02:09;;;;;;;1999.90;999.90;;;31.00;81.60;;;;;;5054265;28;20076;-75
2023/05/02 01:05:02;;;;;;;1999.90;999.90;;;31.10;79.30;;;;;;5043175;28;20048;-74
2023/05/02 01:08:01;;;;;;;1999.90;999.90;;;31.10;81.40;;;;;;5051508;28;20124;-77
2023/05/02 01:10:39;;;;;;;1999.90;999.90;;;31.60;78.10;;;;;;5045570;28;20055;-75
2023/05/02 01:13:21;;;;;;;1999.90;999.90;;;31.50;76.50;;;;;;5049594;28;20092;-74
2023/05/02 01:15:52;;;;;;;1999.90;999.90;;;31.60;77.40;;;;;;5046571;28;20079;-72
2023/05/02 01:18:25;;;;;;;1999.90;999.90;;;31.80;78.40;;;;;;5051339;28;20028;-74
2023/05/02 01:21:00;;;;;;;1999.90;999.90;;;31.80;76.80;;;;;;5051723;28;20415;-72
2023/05/02 01:23:48;;;;;;;1999.90;999.90;;;31.90;75.20;;;;;;5052443;28;20426;-68
2023/05/02 01:26:45;;;;;;;1999.90;999.90;;;31.30;75.40;;;;;;5050235;28;20357;-71
2023/05/02 01:29:15;;;;;;;1999.90;999.90;;;31.10;76.50;;;;;;5049231;28;20029;-75
2023/05/02 01:31:47;;;;;;;1999.90;999.90;;;31.10;76.40;;;;;;5043836;28;20021;-75
2023/05/02 01:34:16;;;;;;;1999.90;999.90;;;31.10;75.40;;;;;;5046565;28;20708;-75
2023/05/02 01:36:46;;;;;;;1999.90;999.90;;;30.70;75.80;;;;;;5032757;28;20048;-74
2023/05/02 01:39:19;;;;;;;1999.90;999.90;;;30.70;76.60;;;;;;5042316;28;20024;-74
2023/05/02 01:41:50;;;;;;;1999.90;999.90;;;30.90;75.90;;;;;;5049459;28;20032;-69
2023/05/02 01:44:19;;;;;;;1999.90;999.90;;;31.20;76.80;;;;;;5044000;28;20776;-71
2023/05/02 01:46:50;;;;;;;1999.90;999.90;;;31.60;76.70;;;;;;5045068;28;20578;-73
2023/05/02 01:49:19;;;;;;;1999.90;999.90;;;31.90;75.80;;;;;;5038622;28;20044;-74
2023/05/02 01:51:49;;;;;;;1999.90;999.90;;;31.90;76.60;;;;;;5051432;28;20041;-71
2023/05/02 01:54:17;;;;;;;1999.90;999.90;;;32.10;76.00;;;;;;5045096;28;20730;-76
2023/05/02 01:56:46;;;;;;;1999.90;999.90;;;32.10;75.40;;;;;;5042610;28;20357;-75
2023/05/02 01:59:16;;;;;;;1999.90;999.90;;;31.90;75.00;;;;;;5043981;28;20049;-73
2023/05/02 02:01:45;;;;;;;1999.90;999.90;;;31.50;75.10;;;;;;5046856;28;20086;-74
2023/05/02 02:04:15;;;;;;;1999.90;999.90;;;30.10;74.90;;;;;;5041503;28;20027;-75
2023/05/02 02:06:50;;;;;;;1999.90;999.90;;;28.80;76.50;;;;;;5033754;28;20036;-74
2023/05/02 02:09:17;;;;;;;1999.90;999.90;;;27.70;77.50;;;;;;5048297;28;20068;-74
2023/05/02 02:11:52;;;;;;;1999.90;999.90;;;26.60;78.90;;;;;;5051038;28;20148;-73
2023/05/02 02:14:33;;;;;;;1999.90;999.90;;;25.80;80.40;;;;;;5050294;28;20477;-75
2023/05/02 02:17:05;;;;;;;1999.90;999.90;;;26.00;81.80;;;;;;5054348;28;20088;-73
2023/05/02 02:19:33;;;;;;;1999.90;999.90;;;27.00;81.80;;;;;;5044333;28;20028;-75
2023/05/02 02:22:04;;;;;;;1999.90;999.90;;;27.80;80.20;;;;;;5052093;28;20029;-75
2023/05/02 02:24:34;;;;;;;1999.90;999.90;;;28.40;79.50;;;;;;5051174;28;20026;-74
2023/05/02 02:27:02;;;;;;;1999.90;999.90;;;28.30;78.90;;;;;;5048408;28;20064;-74
2023/05/02 02:29:29;;;;;;;1999.90;999.90;;;28.70;79.30;;;;;;5050007;28;20040;-74
2023/05/02 02:31:56;;;;;;;1999.90;999.90;;;28.70;78.10;;;;;;5053682;28;20036;-73
2023/05/02 02:34:25;;;;;;;1999.90;999.90;;;28.90;78.60;;;;;;5051129;28;20766;-73
2023/05/02 02:36:55;;;;;;;1999.90;999.90;;;28.80;78.20;;;;;;5056341;28;20091;-74
2023/05/02 02:39:49;;;;;;;1999.90;999.90;;;28.30;78.90;;;;;;5044273;28;20033;-73
2023/05/02 02:42:39;;;;;;;1999.90;999.90;;;27.70;78.50;;;;;;5049063;28;20066;-72
2023/05/02 02:45:07;;;;;;;1999.90;999.90;;;27.40;78.90;;;;;;5047196;28;20037;-75
2023/05/02 02:47:50;;;;;;;1999.90;999.90;;;27.60;79.10;;;;;;5047697;28;20121;-70
2023/05/02 02:50:26;;;;;;;1999.90;999.90;;;28.00;79.10;;;;;;5047017;28;20025;-75
2023/05/02 02:53:06;;;;;;;1999.90;999.90;;;28.10;78.00;;;;;;5048005;28;20080;-74
2023/05/02 02:56:05;;;;;;;1999.90;999.90;;;27.40;77.90;;;;;;5045662;28;20022;-73
2023/05/02 02:58:56;;;;;;;1999.90;999.90;;;26.30;79.70;;;;;;5044159;28;20103;-73
2023/05/02 03:01:27;;;;;;;1999.90;999.90;;;25.50;81.30;;;;;;5045832;28;20025;-73
2023/05/02 03:03:56;;;;;;;1999.90;999.90;;;25.10;82.60;;;;;;5042315;28;21077;-74
2023/05/02 03:06:24;;;;;;;1999.90;999.90;;;24.80;81.70;;;;;;5041882;28;20025;-74
2023/05/02 03:08:52;;;;;;;1999.90;999.90;;;24.60;83.20;;;;;;5049031;28;20076;-75
2023/05/02 03:11:19;;;;;;;1999.90;999.90;;;24.50;84.40;;;;;;5046024;28;20049;-77
2023/05/02 03:13:47;;;;;;;1999.90;999.90;;;24.70;83.40;;;;;;5039198;28;20123;-76
2023/05/02 03:16:36;;;;;;;1999.90;999.90;;;25.10;83.10;;;;;;5048857;28;20021;-75
2023/05/02 03:19:04;;;;;;;1999.90;999.90;;;25.40;82.80;;;;;;5039987;28;20033;-71
2023/05/02 03:21:32;;;;;;;1999.90;999.90;;;26.10;82.40;;;;;;5049289;28;20110;-77
2023/05/02 03:24:02;;;;;;;1999.90;999.90;;;26.60;81.70;;;;;;5042549;28;20106;-75
2023/05/02 03:26:30;;;;;;;1999.90;999.90;;;26.90;80.10;;;;;;5046661;28;20056;-75
2023/05/02 03:28:58;;;;;;;1999.90;999.90;;;26.40;79.40;;;;;;5051500;28;20068;-73
2023/05/02 03:31:25;;;;;;;1999.90;999.90;;;26.10;79.70;;;;;;5051304;28;20511;-74
2023/05/02 03:33:53;;;;;;;1999.90;999.90;;;25.90;80.20;;;;;;5048807;28;20076;-74
2023/05/02 03:36:21;;;;;;;1999.90;999.90;;;25.40;80.00;;;;;;5044695;28;20044;-74
2023/05/02 03:38:48;;;;;;;1999.90;999.90;;;25.40;81.90;;;;;;5038172;28;20048;-75
2023/05/02 03:41:15;;;;;;;1999.90;999.90;;;25.30;81.20;;;;;;5051546;28;20036;-75
2023/05/02 03:43:43;;;;;;;1999.90;999.90;;;25.00;81.70;;;;;;5051319;28;20017;-76
2023/05/02 03:46:10;;;;;;;1999.90;999.90;;;24.60;81.90;;;;;;5048726;28;20025;-76
2023/05/02 03:48:38;;;;;;;1999.90;999.90;;;24.20;82.40;;;;;;5048661;28;20491;-76
2023/05/02 03:51:09;;;;;;;1999.90;999.90;;;24.00;83.80;;;;;;5042557;28;20384;-71
2023/05/02 03:53:36;;;;;;;1999.90;999.90;;;24.00;83.70;;;;;;5042755;28;21854;-76
2023/05/02 03:56:04;;;;;;;1999.90;999.90;;;24.40;84.70;;;;;;5044684;28;20471;-73
2023/05/02 03:58:32;;;;;;;1999.90;999.90;;;24.80;84.20;;;;;;5049158;28;20472;-75
2023/05/02 04:00:59;;;;;;;1999.90;999.90;;;25.10;81.90;;;;;;5055308;28;20081;-74
2023/05/02 04:03:27;;;;;;;1999.90;999.90;;;25.40;81.90;;;;;;5053425;28;20024;-78
2023/05/02 04:05:54;;;;;;;1999.90;999.90;;;25.20;81.00;;;;;;5048388;28;20022;-74
2023/05/02 04:08:22;;;;;;;1999.90;999.90;;;24.90;81.80;;;;;;5046649;28;20037;-76
2023/05/02 04:10:51;;;;;;;1999.90;999.90;;;24.70;82.80;;;;;;5043173;28;20618;-74
2023/05/02 04:13:19;;;;;;;1999.90;999.90;;;24.60;82.90;;;;;;5068515;28;20029;-76
2023/05/02 04:15:46;;;;;;;1999.90;999.90;;;24.30;82.70;;;;;;5052598;28;20391;-73
2023/05/02 04:18:14;;;;;;;1999.90;999.90;;;24.10;83.50;;;;;;5041774;28;20577;-77
2023/05/02 04:20:44;;;;;;;1999.90;999.90;;;23.90;84.60;;;;;;5045592;28;20079;-75
2023/05/02 04:23:11;;;;;;;1999.90;999.90;;;23.70;85.10;;;;;;5056895;28;20036;-74
2023/05/02 04:25:38;;;;;;;1999.90;999.90;;;23.60;85.10;;;;;;5057035;28;20067;-71
2023/05/02 04:28:06;;;;;;;1999.90;999.90;;;23.40;83.00;;;;;;5055215;28;20059;-71
2023/05/02 04:30:33;;;;;;;1999.90;999.90;;;23.20;82.90;;;;;;5048465;28;20480;-75
2023/05/02 04:33:01;;;;;;;1999.90;999.90;;;23.20;84.50;;;;;;5049852;28;20041;-75
2023/05/02 04:35:30;;;;;;;1999.90;999.90;;;23.20;84.40;;;;;;5043551;28;20017;-74
2023/05/02 04:37:59;;;;;;;1999.90;999.90;;;23.30;84.40;;;;;;5051726;28;20167;-74
2023/05/02 04:40:26;;;;;;;1999.90;999.90;;;23.40;84.70;;;;;;5054555;28;20411;-72
2023/05/02 04:42:54;;;;;;;1999.90;999.90;;;23.40;84.00;;;;;;5054385;28;20116;-73
2023/05/02 04:45:21;;;;;;;1999.90;999.90;;;23.40;84.30;;;;;;5053766;28;20535;-74
2023/05/02 04:47:49;;;;;;;1999.90;999.90;;;23.50;84.50;;;;;;5050514;28;20052;-75
2023/05/02 04:50:16;;;;;;;1999.90;999.90;;;23.40;84.70;;;;;;5058607;28;20052;-74
2023/05/02 04:52:44;;;;;;;1999.90;999.90;;;23.40;84.70;;;;;;5061427;28;20104;-75
2023/05/02 04:55:11;;;;;;;1999.90;999.90;;;23.30;84.40;;;;;;5056725;28;20028;-74
2023/05/02 04:57:39;;;;;;;1999.90;999.90;;;23.30;84.90;;;;;;5058467;28;20462;-74
2023/05/02 05:00:07;;;;;;;1999.90;999.90;;;23.30;85.30;;;;;;5048991;28;20048;-74
2023/05/02 05:02:34;;;;;;;1999.90;999.90;;;23.30;85.40;;;;;;5054845;28;20055;-75
2023/05/02 05:05:03;;;;;;;1999.90;999.90;;;23.20;85.40;;;;;;5050251;28;20028;-73
2023/05/02 05:07:30;;;;;;;1999.90;999.90;;;23.10;85.70;;;;;;5055193;28;20033;-73
2023/05/02 05:09:57;;;;;;;1999.90;999.90;;;22.90;86.20;;;;;;5049511;28;20118;-75
2023/05/02 05:12:25;;;;;;;1999.90;999.90;;;22.80;86.90;;;;;;5055344;28;20495;-75
2023/05/02 05:14:52;;;;;;;1999.90;999.90;;;22.70;87.60;;;;;;5042370;28;20780;-76
2023/05/02 05:17:20;;;;;;;1999.90;999.90;;;22.70;87.00;;;;;;5049198;28;20498;-74
2023/05/02 05:19:47;;;;;;;1999.90;999.90;;;22.70;87.40;;;;;;5051431;28;20025;-73
2023/05/02 05:22:15;;;;;;;1999.90;999.90;;;22.70;87.80;;;;;;5050636;28;20048;-74
2023/05/02 05:24:42;;;;;;;1999.90;999.90;;;22.70;88.20;;;;;;5047010;28;20032;-77
2023/05/02 05:27:10;;;;;;;1999.90;999.90;;;22.80;88.50;;;;;;5053143;28;20343;-74
2023/05/02 05:29:37;;;;;;;1999.90;999.90;;;22.80;88.30;;;;;;5052876;28;20026;-73
2023/05/02 05:32:05;;;;;;;1999.90;999.90;;;22.80;87.40;;;;;;5054657;28;20041;-76
2023/05/02 05:34:33;;;;;;;1999.90;999.90;;;22.80;87.60;;;;;;5044199;28;20021;-76
2023/05/02 05:37:00;;;;;;;1999.90;999.90;;;22.70;87.50;;;;;;5054679;28;20029;-73
2023/05/02 05:39:28;;;;;;;1999.90;999.90;;;22.70;87.50;;;;;;5041509;28;20035;-73
2023/05/02 05:41:56;;;;;;;1999.90;999.90;;;22.50;87.60;;;;;;5045936;28;20036;-73
2023/05/02 05:44:24;;;;;;;1999.90;999.90;;;22.30;88.30;;;;;;5048075;28;20032;-74
2023/05/02 05:46:51;;;;;;;1999.90;999.90;;;22.20;88.90;;;;;;5054428;28;20032;-74
2023/05/02 05:49:20;;;;;;;1999.90;999.90;;;22.00;89.20;;;;;;5049945;28;20492;-74
2023/05/02 05:51:49;;;;;;;1999.90;999.90;;;22.00;89.40;;;;;;5050393;28;20048;-75
2023/05/02 05:54:17;;;;;;;1999.90;999.90;;;21.90;89.80;;;;;;5048633;28;20086;-77
2023/05/02 05:56:45;;;;;;;1999.90;999.90;;;21.80;90.10;;;;;;5062681;28;20033;-76
2023/05/02 05:59:12;;;;;;;1999.90;999.90;;;21.70;90.50;;;;;;5055828;28;20033;-76
2023/05/02 06:01:40;;;;;;;1999.90;999.90;;;21.70;90.80;;;;;;5059077;28;20140;-77
2023/05/02 06:04:08;;;;;;;1999.90;999.90;;;21.60;90.90;;;;;;5052743;28;20026;-76
2023/05/02 06:06:36;;;;;;;1999.90;999.90;;;21.60;91.00;;;;;;5062657;28;20436;-74
2023/05/02 06:09:06;;;;;;;1999.90;999.90;;;21.50;91.00;;;;;;5052613;28;20037;-74
2023/05/02 06:11:35;;;;;;;1999.90;999.90;;;21.50;91.00;;;;;;5054612;28;20045;-75
2023/05/02 06:14:03;;;;;;;1999.90;999.90;;;21.40;90.80;;;;;;5052086;28;20048;-73
2023/05/02 06:16:30;;;;;;;1999.90;999.90;;;21.40;91.00;;;;;;5057180;28;20787;-74
2023/05/02 06:19:00;;;;;;;1999.90;999.90;;;21.30;91.00;;;;;;5056196;28;20112;-73
2023/05/02 06:21:27;;;;;;;1999.90;999.90;;;21.20;90.90;;;;;;5048424;28;20025;-73
2023/05/02 06:23:55;;;;;;;1999.90;999.90;;;21.20;91.20;;;;;;5048973;28;20067;-74
2023/05/02 06:26:22;;;;;;;1999.90;999.90;;;21.10;91.50;;;;;;5043971;28;20030;-73
2023/05/02 06:28:49;;;;;;;1999.90;999.90;;;21.10;91.70;;;;;;5042406;28;20040;-73
2023/05/02 06:31:17;;;;;;;1999.90;999.90;;;21.10;91.80;;;;;;5046097;28;20026;-74
2023/05/02 06:33:47;;;;;;;1999.90;999.90;;;21.10;91.60;;;;;;5048044;28;20041;-74
2023/05/02 06:36:14;;;;;;;1999.90;999.90;;;21.10;91.50;;;;;;5042609;28;20040;-77
2023/05/02 06:38:42;;;;;;;1999.90;999.90;;;21.10;91.50;;;;;;5053266;28;20017;-74
2023/05/02 06:41:13;;;;;;;1999.90;999.90;;;21.00;91.70;;;;;;5040952;28;20445;-74
2023/05/02 06:43:41;;;;;;;1999.90;999.90;;;20.90;91.80;;;;;;5046108;28;20100;-76
2023/05/02 06:46:09;;;;;;;1999.90;999.90;;;20.90;92.00;;;;;;5043372;28;20061;-74
2023/05/02 06:48:36;;;;;;;1999.90;999.90;;;20.90;91.80;;;;;;5048525;28;20415;-74
2023/05/02 06:51:04;;;;;;;1999.90;999.90;;;20.90;91.90;;;;;;5041871;28;20094;-74
2023/05/02 06:53:32;;;;;;;1999.90;999.90;;;20.90;92.00;;;;;;5055876;28;20386;-74
2023/05/02 06:55:59;;;;;;;1999.90;999.90;;;20.90;92.00;;;;;;5047183;28;20044;-73
2023/05/02 06:58:27;;;;;;;1999.90;999.90;;;20.80;92.20;;;;;;5039083;28;20084;-73
2023/05/02 07:00:54;;;;;;;1999.90;999.90;;;20.80;92.30;;;;;;5044398;28;20476;-73
2023/05/02 07:03:22;;;;;;;1999.90;999.90;;;20.70;92.40;;;;;;5050422;28;20103;-73
2023/05/02 07:05:49;;;;;;;1999.90;999.90;;;20.60;92.50;;;;;;5051467;28;20036;-74
2023/05/02 07:08:17;;;;;;;1999.90;999.90;;;20.60;92.60;;;;;;5052220;28;20079;-72
2023/05/02 07:10:44;;;;;;;1999.90;999.90;;;20.50;92.80;;;;;;5049541;28;20060;-72
2023/05/02 07:13:12;;;;;;;1999.90;999.90;;;20.40;92.90;;;;;;5049873;28;20067;-71
2023/05/02 07:15:39;;;;;;;1999.90;999.90;;;20.30;93.50;;;;;;5030890;28;20032;-71
2023/05/02 07:18:06;;;;;;;1999.90;999.90;;;20.30;93.80;;;;;;5049256;28;20033;-74
2023/05/02 07:20:34;;;;;;;1999.90;999.90;;;20.20;94.20;;;;;;5046449;28;20029;-73
2023/05/02 07:23:01;;;;;;;1999.90;999.90;;;20.20;94.60;;;;;;5047089;28;20033;-74
2023/05/02 07:25:28;;;;;;;1999.90;999.90;;;20.10;94.30;;;;;;5042553;28;20024;-72
2023/05/02 07:27:56;;;;;;;1999.90;999.90;;;20.00;94.60;;;;;;5051568;28;20048;-73
2023/05/02 07:30:23;;;;;;;1999.90;999.90;;;19.90;95.10;;;;;;5051723;28;20387;-72
2023/05/02 07:32:51;;;;;;;1999.90;999.90;;;19.90;95.30;;;;;;5044725;28;20044;-72
2023/05/02 07:35:18;;;;;;;1999.90;999.90;;;19.80;95.40;;;;;;5037839;28;20116;-72
2023/05/02 07:37:45;;;;;;;1999.90;999.90;;;19.70;95.40;;;;;;5049899;28;20044;-74
2023/05/02 07:40:13;;;;;;;1999.90;999.90;;;19.60;95.50;;;;;;5044675;28;20379;-73
2023/05/02 07:42:40;;;;;;;1999.90;999.90;;;19.50;95.30;;;;;;5041321;28;20036;-72
2023/05/02 07:45:09;;;;;;;1999.90;999.90;;;19.40;95.70;;;;;;5038517;28;20031;-72
2023/05/02 07:47:36;;;;;;;1999.90;999.90;;;19.30;96.20;;;;;;5044035;28;20057;-74
2023/05/02 07:50:04;;;;;;;1999.90;999.90;;;19.20;96.70;;;;;;5037891;28;20025;-72
2023/05/02 07:52:31;;;;;;;1999.90;999.90;;;19.10;97.30;;;;;;5039483;28;20037;-70
2023/05/02 07:54:58;;;;;;;1999.90;999.90;;;19.00;97.60;;;;;;5030092;28;20030;-72
2023/05/02 07:57:26;;;;;;;1999.90;999.90;;;18.90;97.70;;;;;;5042864;28;20026;-73
2023/05/02 07:59:56;;;;;;;1999.90;999.90;;;18.90;97.70;;;;;;5043954;28;20120;-73
2023/05/02 08:02:23;;;;;;;1999.90;999.90;;;18.80;97.90;;;;;;5042129;28;20028;-72
2023/05/02 08:04:51;;;;;;;1999.90;999.90;;;18.80;98.20;;;;;;5041663;28;20039;-72
2023/05/02 08:07:18;;;;;;;1999.90;999.90;;;18.80;98.40;;;;;;5038693;28;20037;-72
2023/05/02 08:09:46;;;;;;;1999.90;999.90;;;18.80;98.80;;;;;;5043294;28;20060;-72
2023/05/02 08:12:13;;;;;;;1999.90;999.90;;;18.70;98.40;;;;;;5031626;28;20094;-73
2023/05/02 08:14:40;;;;;;;1999.90;999.90;;;18.50;98.60;;;;;;5040583;28;20052;-74
2023/05/02 08:17:08;;;;;;;1999.90;999.90;;;18.50;99.10;;;;;;5049891;28;20096;-74
2023/05/02 08:19:35;;;;;;;1999.90;999.90;;;18.40;99.50;;;;;;5043338;28;20126;-74
2023/05/02 08:22:02;;;;;;;1999.90;999.90;;;18.30;99.60;;;;;;5041700;28;20032;-76
2023/05/02 08:24:30;;;;;;;1999.90;999.90;;;18.20;99.90;;;;;;5042323;28;20089;-73
2023/05/02 08:26:57;;;;;;;1999.90;999.90;;;18.20;99.90;;;;;;5035425;28;20038;-73
2023/05/02 08:29:24;;;;;;;1999.90;999.90;;;18.20;99.90;;;;;;5045312;28;20351;-71
2023/05/02 08:31:52;;;;;;;1999.90;999.90;;;18.10;99.80;;;;;;5050339;28;20022;-72
2023/05/02 08:34:19;;;;;;;1999.90;999.90;;;18.20;99.70;;;;;;5046443;28;20032;-72
2023/05/02 08:36:47;;;;;;;1999.90;999.90;;;18.30;99.60;;;;;;5051808;28;20095;-74
2023/05/02 08:39:15;;;;;;;1999.90;999.90;;;18.40;99.40;;;;;;5051174;28;20552;-72
2023/05/02 08:41:43;;;;;;;1999.90;999.90;;;18.40;99.50;;;;;;5053705;28;20074;-73
2023/05/02 08:44:12;;;;;;;1999.90;999.90;;;18.50;99.90;;;;;;5044979;28;20033;-74
2023/05/02 08:46:42;;;;;;;1999.90;999.90;;;18.50;99.80;;;;;;5035167;28;20772;-73
2023/05/02 08:49:15;;;;;;;1999.90;999.90;;;18.50;99.80;;;;;;5040231;28;20036;-75
2023/05/02 08:51:43;;;;;;;1999.90;999.90;;;18.40;99.90;;;;;;5042940;28;20017;-73
2023/05/02 08:54:15;;;;;;;1999.90;999.90;;;18.30;99.80;;;;;;5030971;28;20480;-73
2023/05/02 08:56:43;;;;;;;1999.90;999.90;;;18.20;99.80;;;;;;5042362;28;20099;-73
2023/05/02 08:59:10;;;;;;;1999.90;999.90;;;18.00;99.90;;;;;;5038832;28;20029;-73
2023/05/02 09:01:40;;;;;;;1999.90;999.90;;;17.90;99.90;;;;;;5049091;28;20029;-73
2023/05/02 09:04:08;;;;;;;1999.90;999.90;;;17.90;99.90;;;;;;5033316;28;20029;-73
2023/05/02 09:06:36;;;;;;;1999.90;999.90;;;17.80;99.90;;;;;;5032677;28;21086;-73
2023/05/02 09:09:04;;;;;;;1999.90;999.90;;;17.60;99.90;;;;;;5032364;28;20041;-73
2023/05/02 09:11:31;;;;;;;1999.90;999.90;;;17.50;99.90;;;;;;5036561;28;20566;-71
2023/05/02 09:14:02;;;;;;;1999.90;999.90;;;17.40;99.90;;;;;;5041499;28;20442;-72
2023/05/02 09:16:37;;;;;;;1999.90;999.90;;;17.30;99.90;;;;;;5051220;28;20025;-72
2023/05/02 09:19:04;;;;;;;1999.90;999.90;;;17.20;99.90;;;;;;5037761;28;20045;-72
2023/05/02 09:21:42;;;;;;;1999.90;999.90;;;17.10;99.90;;;;;;5047086;28;20028;-72
2023/05/02 09:24:18;;;;;;;1999.90;999.90;;;17.00;99.90;;;;;;5044991;28;20037;-73
2023/05/02 09:27:03;;;;;;;;;;;17.00;99.90;;;;;;5047285;28;20371;-73
2023/05/02 09:29:37;;;;;;;1999.90;999.90;;;16.90;99.90;;;;;;5040544;28;19986;-72
2023/05/02 09:32:05;;;;;;;1999.90;999.90;;;16.80;99.90;;;;;;5044553;28;20028;-72
2023/05/02 09:34:36;;;;;;;1999.90;999.90;;;16.80;99.90;;;;;;5043558;28;20108;-73
2023/05/02 09:37:04;;;;;;;1999.90;999.90;;;16.80;99.90;;;;;;5041589;28;20017;-73
2023/05/02 09:39:31;;;;;;;1999.90;999.90;;;16.70;99.90;;;;;;5033288;28;20075;-71
2023/05/02 09:41:59;;;;;;;1999.90;999.90;;;16.70;99.90;;;;;;5031546;28;20045;-71
2023/05/02 09:44:36;;;;;;;1999.90;999.90;;;16.70;99.90;;;;;;5029431;28;20103;-72
2023/05/02 09:47:05;;;;;;;1999.90;999.90;;;16.70;99.90;;;;;;5032978;28;20032;-72
2023/05/02 09:49:50;;;;;;;1999.90;999.90;;;16.70;99.90;;;;;;5027052;28;22223;-72
2023/05/02 09:52:20;;;;;;;1999.90;999.90;;;16.70;99.90;;;;;;5031083;28;20025;-72
2023/05/02 09:54:51;;;;;;;1999.90;999.90;;;16.70;99.90;;;;;;5035827;28;20491;-72
2023/05/02 09:57:19;;;;;;;1999.90;999.90;;;16.70;99.90;;;;;;5036057;28;20120;-75
2023/05/02 09:59:57;;;;;;;1999.90;999.90;;;16.70;99.90;;;;;;5028385;28;20035;-73
2023/05/02 10:02:25;;;;;;;1999.90;999.90;;;16.80;99.90;;;;;;5036892;28;20055;-73
2023/05/02 10:04:57;;;;;;;1999.90;999.90;;;16.80;99.90;;;;;;5037865;28;20091;-72
2023/05/02 10:07:25;;;;;;;1999.90;999.90;;;16.90;99.90;;;;;;5033084;28;20452;-73
2023/05/02 10:09:56;;;;;;;1999.90;999.90;;;16.90;99.90;;;;;;5038965;28;20071;-72
2023/05/02 10:12:30;;;;;;;1999.90;999.90;;;16.90;99.90;;;;;;5041804;28;20029;-72
2023/05/02 10:15:02;;;;;;;1999.90;999.90;;;16.90;99.90;;;;;;5048051;28;20089;-74
2023/05/02 10:17:42;;;;;;;1999.90;999.90;;;16.80;99.90;;;;;;5039472;28;20086;-73
2023/05/02 10:20:15;;;;;;;1999.90;999.90;;;16.80;99.90;;;;;;5050130;28;20048;-73
2023/05/02 10:22:46;;;;;;;1999.90;999.90;;;16.70;99.90;;;;;;5053186;28;20033;-74
2023/05/02 10:25:14;;;;;;;1999.90;999.90;;;16.60;99.90;;;;;;5053165;28;20107;-72
2023/05/02 10:27:42;;;;;;;1999.90;999.90;;;16.50;99.90;;;;;;5035015;28;20033;-74
2023/05/02 10:30:10;;;;;;;1999.90;999.90;;;16.40;99.90;;;;;;5045980;28;20053;-73
2023/05/02 10:32:38;;;;;;;1999.90;999.90;;;16.30;99.90;;;;;;5054666;28;20479;-73
2023/05/02 10:35:07;;;;;;;1999.90;999.90;;;16.20;99.90;;;;;;5043273;28;20485;-73
2023/05/02 10:37:40;;;;;;;1999.90;999.90;;;16.10;99.90;;;;;;5054428;28;20040;-74
2023/05/02 10:40:12;;;;;;;1999.90;999.90;;;16.00;99.90;;;;;;5043291;28;20025;-75
2023/05/02 10:42:45;;;;;;;1999.90;999.90;;;15.90;99.90;;;;;;5049466;28;20439;-74
2023/05/02 10:45:35;;;;;;;1999.90;999.90;;;15.90;99.90;;;;;;5053194;28;20028;-73
2023/05/02 10:48:18;;;;;;;1999.90;999.90;;;15.80;99.90;;;;;;5050105;28;20119;-72
2023/05/02 10:50:55;;;;;;;1999.90;999.90;;;15.70;99.90;;;;;;5047690;28;20056;-71
2023/05/02 10:53:28;;;;;;;1999.90;999.90;;;15.50;99.90;;;;;;5039657;28;20028;-73
2023/05/02 10:56:21;;;;;;;1999.90;999.90;;;15.50;99.90;;;;;;5047300;28;20054;-70
2023/05/02 10:58:50;;;;;;;1999.90;999.90;;;15.40;99.90;;;;;;5035772;28;20572;-74
2023/05/02 11:01:32;;;;;;;1999.90;999.90;;;15.30;99.90;;;;;;5037249;28;20749;-73
2023/05/02 11:04:10;;;;;;;1999.90;999.90;;;15.20;99.90;;;;;;5038628;28;20040;-74
2023/05/02 11:06:58;;;;;;;1999.90;999.90;;;15.10;99.90;;;;;;5035930;28;20037;-74
2023/05/02 11:09:28;;;;;;;1999.90;999.90;;;15.00;99.90;;;;;;5049618;28;20040;-73
2023/05/02 11:12:00;;;;;;;1999.90;999.90;;;15.00;99.90;;;;;;5036949;28;20053;-73
2023/05/02 11:14:28;;;;;;;1999.90;999.90;;;14.90;99.90;;;;;;5025434;28;20037;-73
2023/05/02 11:16:58;;;;;;;1999.90;999.90;;;14.90;99.90;;;;;;5021327;28;20129;-73
2023/05/02 11:19:27;;;;;;;1999.90;999.90;;;14.80;99.90;;;;;;5027302;28;20029;-73
2023/05/02 11:22:20;;;;;;;1999.90;999.90;;;14.80;99.90;;;;;;5041885;28;20033;-74
2023/05/02 11:24:49;;;;;;;1999.90;999.90;;;14.70;99.90;;;;;;5037367;28;20156;-73
2023/05/02 11:27:37;;;;;;;1999.90;999.90;;;14.70;99.90;;;;;;5045058;28;20128;-73
2023/05/02 11:30:08;;;;;;;1999.90;999.90;;;14.60;99.90;;;;;;5039262;28;20053;-73
2023/05/02 11:32:45;;;;;;;1999.90;999.90;;;14.60;99.90;;;;;;5046591;28;20475;-73
2023/05/02 11:35:19;;;;;;;1999.90;999.90;;;14.60;99.90;;;;;;5033781;28;20037;-73
2023/05/02 11:38:13;;;;;;;1999.90;999.90;;;14.50;99.90;;;;;;5041193;28;20029;-72
2023/05/02 11:40:49;;;;;;;1999.90;999.90;;;14.50;99.90;;;;;;5037014;28;20112;-74
2023/05/02 11:43:17;;;;;;;;;;;14.40;99.90;;;;;;5047252;28;20040;-71
2023/05/02 11:45:45;;;;;;;1999.90;999.90;;;14.40;99.90;;;;;;5046651;28;19917;-72
2023/05/02 11:48:15;;;;;;;1999.90;999.90;;;14.40;99.90;;;;;;5042160;28;20047;-72
2023/05/02 11:50:57;;;;;;;1999.90;999.90;;;14.30;99.90;;;;;;5051184;28;20025;-73
2023/05/02 11:53:28;;;;;;;1999.90;999.90;;;14.30;99.90;;;;;;5058432;28;20089;-71
2023/05/02 11:56:00;;;;;;;1999.90;999.90;;;14.20;99.90;;;;;;5054045;28;20051;-73
2023/05/02 11:58:31;;;;;;;1999.90;999.90;;;14.20;99.90;;;;;;5052394;28;20009;-72
2023/05/02 12:00:59;;;;;;;1999.90;999.90;;;14.10;99.90;;;;;;5043170;28;20033;-73
2023/05/02 12:03:32;;;;;;;1999.90;999.90;;;14.10;99.90;;;;;;5056282;28;20468;-73
2023/05/02 12:06:13;;;;;;;1999.90;999.90;;;14.00;99.90;;;;;;5050662;28;20033;-73
2023/05/02 12:08:42;;;;;;;1999.90;999.90;;;13.90;99.90;;;;;;5044196;28;20049;-72
2023/05/02 12:11:13;;;;;;;1999.90;999.90;;;13.90;99.90;;;;;;5050387;28;20138;-73
2023/05/02 12:13:48;;;;;;;1999.90;999.90;;;13.80;99.90;;;;;;5054276;28;20060;-73
2023/05/02 12:16:16;;;;;;;1999.90;999.90;;;13.80;99.90;;;;;;5054070;28;20501;-73